Time;durP1;ratioP1;P1;durP2;ratioP2;P2;SDS_P1;SDS_P2;PMS_P1;PMS_P2;Temp;Humidity;BMP_temperature;BMP_pressure;BME280_temperature;BME280_humidity;BME280_pressure;Samples;Min_cycle;Max_cycle;Signal;HPM_P1;HPM_P2
2022/04/17 00:00:46;;;;;;;31.15;27.45;;;;;;;3.64;100.00;100163.38;2066147;28;20643;-68
2022/04/17 00:01:47;;;;;;;29.67;26.48;;;;;;;3.75;100.00;100167.09;2066227;28;20651;-68
2022/04/17 00:02:48;;;;;;;30.70;27.10;;;;;;;3.75;100.00;100168.94;2064621;28;20668;-69
2022/04/17 00:03:49;;;;;;;31.42;26.95;;;;;;;3.73;100.00;100163.06;2056946;28;20210;-69
2022/04/17 00:04:52;;;;;;;29.90;25.00;;;;;;;3.73;100.00;100163.88;2065386;28;20192;-69
2022/04/17 00:05:56;;;;;;;28.77;25.50;;;;;;;3.69;100.00;100163.53;2064768;28;20300;-69
2022/04/17 00:07:00;;;;;;;29.38;26.17;;;;;;;3.79;100.00;100168.25;2065769;28;20648;-68
2022/04/17 00:08:02;;;;;;;29.90;25.95;;;;;;;3.79;100.00;100170.91;2066141;28;20189;-68
2022/04/17 00:09:03;;;;;;;31.30;26.83;;;;;;;3.78;100.00;100165.84;2065261;28;20734;-68
2022/04/17 00:10:09;;;;;;;30.73;26.60;;;;;;;3.72;100.00;100166.72;2065321;28;20204;-69
2022/04/17 00:11:11;;;;;;;29.75;26.52;;;;;;;3.67;100.00;100167.41;2073245;28;20646;-68
2022/04/17 00:12:12;;;;;;;30.35;26.25;;;;;;;3.65;100.00;100169.47;2065222;28;20205;-68
2022/04/17 00:13:17;;;;;;;29.60;26.40;;;;;;;3.65;100.00;100166.84;2065474;28;20675;-68
2022/04/17 00:14:18;;;;;;;30.60;25.92;;;;;;;3.61;100.00;100161.19;2072643;28;20204;-69
2022/04/17 00:15:20;;;;;;;31.80;26.75;;;;;;;3.58;100.00;100166.13;2064808;28;20296;-68
2022/04/17 00:16:21;;;;;;;30.63;26.35;;;;;;;3.52;100.00;100161.72;2065358;28;20808;-69
2022/04/17 00:17:24;;;;;;;32.53;26.70;;;;;;;3.50;100.00;100158.50;2066024;28;20656;-68
2022/04/17 00:18:26;;;;;;;32.85;27.35;;;;;;;3.46;100.00;100158.13;2065228;28;20193;-68
2022/04/17 00:19:28;;;;;;;32.92;26.23;;;;;;;3.42;100.00;100156.16;2064777;28;20189;-68
2022/04/17 00:20:30;;;;;;;31.30;26.65;;;;;;;3.39;100.00;100158.22;2065043;28;20247;-69
2022/04/17 00:21:32;;;;;;;34.00;27.35;;;;;;;3.36;100.00;100158.66;2056868;28;20317;-68
2022/04/17 00:22:33;;;;;;;31.00;26.50;;;;;;;3.32;100.00;100157.50;2065415;28;20197;-68
2022/04/17 00:23:35;;;;;;;32.47;26.23;;;;;;;3.31;100.00;100157.72;2065868;28;20189;-68
2022/04/17 00:24:35;;;;;;;30.67;27.05;;;;;;;3.28;100.00;100158.16;2065878;28;20524;-68
2022/04/17 00:25:42;;;;;;;30.93;26.87;;;;;;;3.25;100.00;100154.13;2065164;28;20352;-68
2022/04/17 00:26:43;;;;;;;31.23;26.08;;;;;;;3.22;100.00;100154.59;2064795;28;20722;-69
2022/04/17 00:27:47;;;;;;;29.98;26.17;;;;;;;3.21;100.00;100150.31;2057351;28;20256;-68
2022/04/17 00:28:47;;;;;;;29.40;24.77;;;;;;;3.16;100.00;100150.19;2057444;28;20232;-68
2022/04/17 00:29:49;;;;;;;32.87;25.20;;;;;;;3.15;100.00;100155.69;2065299;28;20251;-69
2022/04/17 00:30:50;;;;;;;28.40;25.00;;;;;;;3.11;100.00;100145.56;2073398;28;20652;-69
2022/04/17 00:31:51;;;;;;;28.33;25.33;;;;;;;3.08;100.00;100143.38;2065949;28;20372;-69
2022/04/17 00:32:52;;;;;;;27.95;24.52;;;;;;;3.05;100.00;100149.09;2065275;28;20212;-69
2022/04/17 00:33:55;;;;;;;29.20;24.10;;;;;;;3.00;100.00;100143.66;2057124;28;20719;-68
2022/04/17 00:34:57;;;;;;;28.67;24.25;;;;;;;2.99;100.00;100144.69;2065433;28;20997;-69
2022/04/17 00:35:59;;;;;;;27.80;24.85;;;;;;;2.96;100.00;100149.59;2072844;28;20625;-69
2022/04/17 00:37:00;;;;;;;31.02;24.90;;;;;;;2.92;100.00;100145.78;2065140;28;20204;-68
2022/04/17 00:38:02;;;;;;;29.40;23.67;;;;;;;2.92;100.00;100156.31;2057182;28;20205;-68
2022/04/17 00:39:03;;;;;;;31.98;24.63;;;;;;;2.91;100.00;100149.44;2065241;28;20197;-68
2022/04/17 00:40:09;;;;;;;30.73;24.73;;;;;;;2.87;100.00;100148.25;2065958;28;20189;-68
2022/04/17 00:41:11;;;;;;;26.35;23.38;;;;;;;2.88;100.00;100149.88;2065089;28;20212;-69
2022/04/17 00:42:13;;;;;;;31.20;25.05;;;;;;;2.87;100.00;100146.44;2065239;28;20193;-68
2022/04/17 00:43:25;;;;;;;31.05;24.98;;;;;;;2.92;100.00;100151.03;2065792;28;20200;-70
2022/04/17 00:44:26;;;;;;;30.75;25.50;;;;;;;2.97;100.00;100148.56;2065795;28;20727;-68
2022/04/17 00:45:28;;;;;;;29.80;24.17;;;;;;;2.98;100.00;100147.53;2065781;28;20675;-68
2022/04/17 00:46:36;;;;;;;30.70;24.40;;;;;;;3.01;100.00;100149.72;2065883;28;20741;-68
2022/04/17 00:47:38;;;;;;;28.38;24.15;;;;;;;3.00;100.00;100148.13;2065165;28;20198;-67
2022/04/17 00:48:40;;;;;;;29.48;23.55;;;;;;;3.02;100.00;100140.78;2065395;28;20284;-68
2022/04/17 00:49:41;;;;;;;29.52;23.35;;;;;;;3.10;100.00;100145.78;2065803;28;20660;-67
2022/04/17 00:50:42;;;;;;;31.88;24.45;;;;;;;3.08;100.00;100139.94;2066003;28;20193;-67
2022/04/17 00:51:45;;;;;;;32.77;23.27;;;;;;;3.06;100.00;100144.63;2064812;28;20244;-67
2022/04/17 00:52:46;;;;;;;31.65;23.70;;;;;;;3.08;100.00;100142.56;2065433;28;20193;-68
2022/04/17 00:53:47;;;;;;;27.80;23.43;;;;;;;3.07;100.00;100140.94;2065766;28;20205;-69
2022/04/17 00:54:49;;;;;;;32.30;24.27;;;;;;;3.08;100.00;100140.72;2065879;28;20193;-69
2022/04/17 00:55:51;;;;;;;29.52;24.10;;;;;;;3.13;100.00;100148.00;2065783;28;20192;-67
2022/04/17 00:56:56;;;;;;;29.10;24.25;;;;;;;3.11;100.00;100148.19;2065121;28;20205;-68
2022/04/17 00:57:57;;;;;;;34.22;24.83;;;;;;;3.12;100.00;100149.00;2065489;28;20280;-68
2022/04/17 00:58:58;;;;;;;27.57;23.93;;;;;;;3.14;100.00;100148.78;2065072;28;20252;-68
2022/04/17 00:59:59;;;;;;;30.35;25.02;;;;;;;3.20;100.00;100148.69;2057139;28;20212;-67
2022/04/17 01:01:02;;;;;;;33.80;23.53;;;;;;;3.17;100.00;100149.16;2057018;28;20228;-69
2022/04/17 01:02:05;;;;;;;28.38;23.73;;;;;;;3.13;100.00;100148.00;2065197;28;20678;-69
2022/04/17 01:03:07;;;;;;;27.90;24.80;;;;;;;3.09;100.00;100141.53;2065168;28;20197;-68
2022/04/17 01:04:09;;;;;;;27.13;24.15;;;;;;;3.10;100.00;100146.56;2065263;28;20287;-69
2022/04/17 01:05:10;;;;;;;28.17;24.42;;;;;;;3.10;100.00;100143.94;2065647;28;20189;-69
2022/04/17 01:06:11;;;;;;;29.10;24.10;;;;;;;3.14;100.00;100146.97;2064527;28;20207;-68
2022/04/17 01:07:14;;;;;;;27.33;23.90;;;;;;;3.16;100.00;100147.53;2065322;28;20260;-68
2022/04/17 01:08:17;;;;;;;27.77;24.67;;;;;;;3.12;100.00;100144.53;2065744;28;20668;-68
2022/04/17 01:09:20;;;;;;;27.92;23.85;;;;;;;3.14;100.00;100141.69;2065704;28;20602;-68
2022/04/17 01:10:21;;;;;;;28.88;24.70;;;;;;;3.13;100.00;100140.09;2065695;28;20197;-68
2022/04/17 01:11:23;;;;;;;27.23;23.90;;;;;;;3.15;100.00;100148.56;2065765;28;20238;-68
2022/04/17 01:12:25;;;;;;;26.13;23.33;;;;;;;3.10;100.00;100143.13;2065682;28;20560;-68
2022/04/17 01:13:27;;;;;;;27.40;23.30;;;;;;;3.07;100.00;100141.75;2065712;28;20196;-69
2022/04/17 01:14:28;;;;;;;27.25;23.05;;;;;;;3.04;100.00;100136.09;2065634;28;20214;-68
2022/04/17 01:15:31;;;;;;;27.40;23.05;;;;;;;3.02;100.00;100135.53;2065688;28;20193;-68
2022/04/17 01:16:32;;;;;;;27.70;23.83;;;;;;;3.02;100.00;100140.78;2065136;28;20273;-69
2022/04/17 01:17:34;;;;;;;26.52;23.65;;;;;;;3.02;100.00;100138.16;2057012;28;20236;-68
2022/04/17 01:18:56;;;;;;;31.02;23.95;;;;;;;2.99;100.00;100133.34;2065136;28;20189;-68
2022/04/17 01:19:58;;;;;;;30.60;23.17;;;;;;;3.02;100.00;100140.78;2073145;28;20618;-69
2022/04/17 01:20:59;;;;;;;29.15;23.80;;;;;;;3.02;100.00;100131.06;2072588;28;20254;-69
2022/04/17 01:22:04;;;;;;;25.73;23.00;;;;;;;3.04;100.00;100136.09;2065748;28;20221;-68
2022/04/17 01:27:05;;;;;;;26.85;23.10;;;;;;;3.07;100.00;100138.31;2065295;28;20196;-69
2022/04/17 01:28:06;;;;;;;28.33;23.40;;;;;;;3.04;100.00;100134.28;2065662;28;20331;-68
2022/04/17 01:29:10;;;;;;;29.17;23.15;;;;;;;2.98;100.00;100137.00;2065613;28;20695;-68
2022/04/17 01:30:13;;;;;;;25.48;22.67;;;;;;;2.98;100.00;100134.38;2064597;28;20251;-69
2022/04/17 01:31:14;;;;;;;27.90;23.17;;;;;;;2.93;100.00;100124.47;2057934;28;20225;-69
2022/04/17 01:32:16;;;;;;;28.67;24.00;;;;;;;2.91;100.00;100123.09;2066564;28;20214;-68
2022/04/17 01:33:16;;;;;;;29.00;24.23;;;;;;;2.93;100.00;100131.56;2067324;28;20243;-69
2022/04/17 01:34:18;;;;;;;34.83;24.07;;;;;;;2.94;100.00;100133.16;2067101;28;20251;-69
2022/04/17 01:35:22;;;;;;;26.15;23.10;;;;;;;2.92;100.00;100133.41;2066463;28;20208;-69
2022/04/17 01:36:24;;;;;;;27.40;23.85;;;;;;;2.93;100.00;100127.09;2066247;28;20367;-69
2022/04/17 01:37:29;;;;;;;27.60;22.80;;;;;;;2.89;100.00;100135.69;2066037;28;20681;-68
2022/04/17 01:38:30;;;;;;;29.63;24.50;;;;;;;2.84;100.00;100139.75;2058420;28;20209;-68
2022/04/17 01:39:32;;;;;;;28.70;24.27;;;;;;;2.83;100.00;100126.81;2058352;28;20202;-69
2022/04/17 01:40:32;;;;;;;30.75;24.25;;;;;;;2.83;100.00;100126.81;2058463;28;20194;-69
2022/04/17 01:41:34;;;;;;;28.53;23.50;;;;;;;2.86;100.00;100126.34;2066432;28;20283;-70
2022/04/17 01:42:37;;;;;;;27.80;23.58;;;;;;;2.88;100.00;100120.91;2074534;28;20192;-68
2022/04/17 01:43:38;;;;;;;25.90;22.98;;;;;;;2.90;100.00;100119.66;2065665;28;20219;-69
2022/04/17 01:44:43;;;;;;;31.80;24.05;;;;;;;2.88;100.00;100121.69;2066534;28;20284;-69
2022/04/17 01:45:43;;;;;;;28.63;24.08;;;;;;;2.85;100.00;100119.47;2067017;28;20189;-69
2022/04/17 01:46:46;;;;;;;30.83;23.70;;;;;;;2.84;100.00;100131.06;2066291;28;20197;-69
2022/04/17 01:47:49;;;;;;;28.75;23.55;;;;;;;2.86;100.00;100130.81;2066422;28;20201;-68
2022/04/17 01:48:49;;;;;;;28.95;23.52;;;;;;;2.86;100.00;100126.34;2067065;28;20259;-70
2022/04/17 01:49:51;;;;;;;27.80;23.37;;;;;;;2.88;100.00;100124.34;2066983;28;20251;-69
2022/04/17 01:50:52;;;;;;;27.90;23.52;;;;;;;2.90;100.00;100124.91;2066760;28;20196;-71
2022/04/17 01:51:55;;;;;;;27.50;23.20;;;;;;;2.89;100.00;100125.13;2067124;28;20214;-68
2022/04/17 01:52:59;;;;;;;29.00;23.27;;;;;;;2.87;100.00;100133.28;2066934;28;20200;-69
2022/04/17 01:54:00;;;;;;;28.90;23.60;;;;;;;2.86;100.00;100125.56;2066278;28;20197;-69
2022/04/17 01:55:01;;;;;;;26.38;23.05;;;;;;;2.89;100.00;100135.69;2066387;28;20193;-69
2022/04/17 01:56:03;;;;;;;28.50;23.63;;;;;;;2.83;100.00;100122.34;2066910;28;20272;-69
2022/04/17 01:57:06;;;;;;;32.85;23.65;;;;;;;2.80;100.00;100128.06;2066194;28;20216;-69
2022/04/17 01:58:08;;;;;;;29.80;23.73;;;;;;;2.78;100.00;100130.13;2066443;28;20711;-69
2022/04/17 01:59:11;;;;;;;29.85;22.83;;;;;;;2.83;100.00;100132.88;2065897;28;20197;-69
2022/04/17 02:00:13;;;;;;;31.35;23.50;;;;;;;2.85;100.00;100137.94;2058327;28;20589;-69
2022/04/17 02:01:14;;;;;;;27.58;23.27;;;;;;;2.81;100.00;100126.22;2066345;28;20189;-69
2022/04/17 02:02:16;;;;;;;28.45;23.20;;;;;;;2.81;100.00;100123.59;2065784;28;20216;-69
2022/04/17 02:03:17;;;;;;;28.30;22.92;;;;;;;2.77;100.00;100123.19;2058108;28;20209;-68
2022/04/17 02:04:19;;;;;;;26.53;22.67;;;;;;;2.75;100.00;100124.47;2057493;28;20209;-69
2022/04/17 02:05:21;;;;;;;27.05;23.42;;;;;;;2.70;100.00;100119.06;2066302;28;20716;-69
2022/04/17 02:06:22;;;;;;;29.70;22.80;;;;;;;2.58;100.00;100108.41;2065716;28;20229;-70
2022/04/17 02:07:24;;;;;;;27.92;23.90;;;;;;;2.60;100.00;100121.34;2058200;28;20193;-69
2022/04/17 02:08:27;;;;;;;27.45;22.95;;;;;;;2.54;100.00;100112.50;2058266;28;20202;-69
2022/04/17 02:09:29;;;;;;;31.20;23.40;;;;;;;2.54;100.00;100117.78;2058000;28;20236;-69
2022/04/17 02:10:30;;;;;;;27.60;23.00;;;;;;;2.47;100.00;100114.41;2066226;28;20189;-68
2022/04/17 02:11:34;;;;;;;28.53;23.83;;;;;;;2.46;100.00;100118.06;2074130;28;20216;-69
2022/04/17 02:12:36;;;;;;;27.80;22.65;;;;;;;2.44;100.00;100117.47;2074227;28;20192;-69
2022/04/17 02:13:38;;;;;;;31.48;23.90;;;;;;;2.41;100.00;100118.69;2066786;28;20225;-69
2022/04/17 02:14:40;;;;;;;29.00;23.25;;;;;;;2.38;100.00;100111.22;2074476;28;20203;-69
2022/04/17 02:15:41;;;;;;;25.55;22.63;;;;;;;2.36;100.00;100108.03;2074248;28;20251;-69
2022/04/17 02:16:42;;;;;;;26.30;23.23;;;;;;;2.33;100.00;100108.44;2065731;28;20239;-69
2022/04/17 02:17:43;;;;;;;31.13;24.00;;;;;;;2.30;100.00;100100.97;2066245;28;20222;-68
2022/04/17 02:18:46;;;;;;;28.15;22.73;;;;;;;2.31;100.00;100107.03;2066119;28;20256;-69
2022/04/17 02:19:49;;;;;;;32.75;22.90;;;;;;;2.30;100.00;100106.25;2066381;28;20280;-69
2022/04/17 02:20:50;;;;;;;29.15;22.58;;;;;;;2.28;100.00;100107.47;2066083;28;20695;-68
2022/04/17 02:21:51;;;;;;;28.00;23.37;;;;;;;2.27;100.00;100101.41;2057291;28;20655;-69
2022/04/17 02:22:52;;;;;;;29.55;22.60;;;;;;;2.24;100.00;100105.25;2066195;28;20652;-69
2022/04/17 02:23:55;;;;;;;26.17;22.40;;;;;;;2.20;100.00;100101.47;2066049;28;20664;-68
2022/04/17 02:24:58;;;;;;;25.70;22.63;;;;;;;2.24;100.00;100102.63;2066066;28;20209;-69
2022/04/17 02:26:01;;;;;;;27.63;23.75;;;;;;;2.23;100.00;100105.47;2066013;28;20208;-69
2022/04/17 02:27:04;;;;;;;25.95;23.25;;;;;;;2.21;100.00;100105.72;2066140;28;20276;-69
2022/04/17 02:28:05;;;;;;;27.38;23.58;;;;;;;2.21;100.00;100097.00;2074241;28;20663;-69
2022/04/17 02:29:06;;;;;;;27.43;23.40;;;;;;;2.26;100.00;100105.88;2074133;28;20310;-69
2022/04/17 02:30:08;;;;;;;29.90;23.63;;;;;;;2.26;100.00;100100.59;2066015;28;20243;-69
2022/04/17 02:31:11;;;;;;;28.55;24.20;;;;;;;2.23;100.00;100100.22;2066190;28;20244;-69
2022/04/17 02:32:14;;;;;;;24.90;22.42;;;;;;;2.20;100.00;100106.72;2066567;28;20212;-69
2022/04/17 02:33:15;;;;;;;27.30;23.90;;;;;;;2.21;100.00;100103.06;2066641;28;20604;-69
2022/04/17 02:34:17;;;;;;;25.83;23.03;;;;;;;2.29;100.00;100103.81;2066582;28;20196;-68
2022/04/17 02:35:18;;;;;;;26.33;23.30;;;;;;;2.30;100.00;100097.53;2066628;28;20201;-68
2022/04/17 02:36:20;;;;;;;26.43;23.00;;;;;;;2.31;100.00;100105.22;2065586;28;20711;-69
2022/04/17 02:37:21;;;;;;;25.42;22.73;;;;;;;2.36;100.00;100099.31;2066273;28;20200;-69
2022/04/17 02:38:22;;;;;;;27.40;23.13;;;;;;;2.32;100.00;100103.38;2065974;28;20203;-69
2022/04/17 02:39:29;;;;;;;32.67;23.33;;;;;;;2.30;100.00;100100.16;2066112;28;20551;-69
2022/04/17 02:40:30;;;;;;;29.08;23.77;;;;;;;2.35;100.00;100103.78;2066873;28;20218;-69
2022/04/17 02:41:32;;;;;;;25.75;22.98;;;;;;;2.36;100.00;100108.03;2066639;28;20189;-69
2022/04/17 02:42:33;;;;;;;29.90;22.80;;;;;;;2.35;100.00;100095.06;2073277;28;20577;-69
2022/04/17 02:43:34;;;;;;;27.03;23.20;;;;;;;2.35;100.00;100106.41;2074243;28;20295;-69
2022/04/17 02:44:35;;;;;;;31.45;23.90;;;;;;;2.33;100.00;100102.34;2066576;28;20197;-68
2022/04/17 02:45:38;;;;;;;27.90;22.53;;;;;;;2.34;100.00;100104.78;2066790;28;20197;-69
2022/04/17 02:48:00;;;;;;;30.02;22.75;;;;;;;2.46;100.00;100107.53;2066240;28;20566;-69
2022/04/17 02:49:00;;;;;;;29.70;22.80;;;;;;;2.50;100.00;100119.22;2065762;28;20200;-69
2022/04/17 02:50:02;;;;;;;28.87;23.60;;;;;;;2.54;100.00;100113.31;2065945;28;20186;-69
2022/04/17 02:51:04;;;;;;;27.73;23.08;;;;;;;2.59;100.00;100120.56;2073419;28;20247;-70
2022/04/17 02:52:05;;;;;;;26.80;23.02;;;;;;;2.62;100.00;100125.41;2073937;28;20193;-69
2022/04/17 02:53:09;;;;;;;24.77;22.20;;;;;;;2.61;100.00;100123.00;2066503;28;20189;-69
2022/04/17 02:54:11;;;;;;;25.10;22.48;;;;;;;2.60;100.00;100116.09;2065381;28;20244;-69
2022/04/17 02:55:14;;;;;;;29.70;22.83;;;;;;;2.59;100.00;100122.38;2057785;28;20257;-69
2022/04/17 02:56:16;;;;;;;28.13;23.52;;;;;;;2.57;100.00;100122.59;2065930;28;20201;-68
2022/04/17 02:57:17;;;;;;;27.95;23.70;;;;;;;2.59;100.00;100123.19;2066569;28;20258;-69
2022/04/17 02:58:19;;;;;;;26.10;22.93;;;;;;;2.55;100.00;100111.50;2066436;28;20267;-69
2022/04/17 02:59:21;;;;;;;25.75;22.95;;;;;;;2.52;100.00;100120.63;2065156;28;20590;-68
2022/04/17 03:00:26;;;;;;;30.15;24.15;;;;;;;2.50;100.00;100114.75;2065886;28;20592;-68
2022/04/17 03:05:38;;;;;;;28.90;23.63;;;;;;;2.46;100.00;100124.13;2036405;29;20290;-68
2022/04/17 03:06:41;;;;;;;25.75;22.63;;;;;;;2.43;100.00;100115.84;2065491;28;20581;-69
2022/04/17 03:07:44;;;;;;;25.73;22.30;;;;;;;2.43;100.00;100118.47;2065826;28;20201;-68
2022/04/17 03:08:46;;;;;;;27.20;23.15;;;;;;;2.41;100.00;100116.06;2066501;28;20189;-69
2022/04/17 03:09:46;;;;;;;26.33;22.38;;;;;;;2.43;100.00;100115.84;2066366;28;20243;-68
2022/04/17 03:10:49;;;;;;;24.80;22.07;;;;;;;2.45;100.00;100119.88;2066375;28;20239;-68
2022/04/17 03:11:50;;;;;;;25.83;22.95;;;;;;;2.53;100.00;100116.16;2065627;28;20283;-68
2022/04/17 03:12:52;;;;;;;27.20;22.47;;;;;;;2.57;100.00;100127.88;2057221;28;20337;-68
2022/04/17 03:13:56;;;;;;;23.90;21.60;;;;;;;2.55;100.00;100124.66;2065729;28;20239;-68
2022/04/17 03:14:57;;;;;;;25.33;22.38;;;;;;;2.50;100.00;100125.28;2065722;28;20220;-69
2022/04/17 03:15:59;;;;;;;27.53;22.23;;;;;;;2.45;100.00;100125.16;2057286;28;20210;-69
2022/04/17 03:17:00;;;;;;;26.10;22.80;;;;;;;2.48;100.00;100118.63;2065898;28;20199;-68
2022/04/17 03:18:02;;;;;;;25.03;22.43;;;;;;;2.45;100.00;100124.34;2066440;28;20223;-68
2022/04/17 03:19:03;;;;;;;25.20;22.58;;;;;;;2.44;100.00;100120.09;2073811;28;20224;-70
2022/04/17 03:20:07;;;;;;;25.23;21.73;;;;;;;2.42;100.00;100122.94;2065025;28;20683;-69
2022/04/17 03:21:09;;;;;;;26.88;22.83;;;;;;;2.36;100.00;100121.19;2057374;28;20723;-69
2022/04/17 03:22:10;;;;;;;25.70;22.75;;;;;;;2.41;100.00;100128.41;2065971;28;20652;-68
2022/04/17 03:23:12;;;;;;;24.10;21.73;;;;;;;2.37;100.00;100122.00;2066255;28;20619;-68
2022/04/17 03:24:15;;;;;;;25.13;22.60;;;;;;;2.33;100.00;100120.78;2065627;28;20197;-68
2022/04/17 03:25:17;;;;;;;24.27;21.80;;;;;;;2.34;100.00;100120.56;2065666;28;20220;-69
2022/04/17 03:26:19;;;;;;;25.52;22.10;;;;;;;2.34;100.00;100123.19;2066453;28;20235;-68
2022/04/17 03:27:22;;;;;;;24.02;21.52;;;;;;;2.36;100.00;100128.28;2066205;28;20192;-69
2022/04/17 03:28:25;;;;;;;24.90;21.98;;;;;;;2.50;100.00;100127.94;2066210;28;20654;-69
2022/04/17 03:29:25;;;;;;;27.80;22.80;;;;;;;2.53;100.00;100131.97;2066490;28;20617;-68
2022/04/17 03:30:27;;;;;;;27.93;22.33;;;;;;;2.47;100.00;100131.00;2066312;28;20543;-69
2022/04/17 03:31:28;;;;;;;25.77;22.05;;;;;;;2.41;100.00;100128.41;2066251;28;20196;-69
2022/04/17 03:32:31;;;;;;;23.47;21.00;;;;;;;2.63;100.00;100132.28;2073526;28;20322;-69
2022/04/17 03:33:32;;;;;;;23.33;20.85;;;;;;;2.50;100.00;100122.66;2065497;28;20227;-69
2022/04/17 03:34:35;;;;;;;24.20;20.83;;;;;;;2.48;100.00;100131.81;2065625;28;20283;-68
2022/04/17 03:35:36;;;;;;;22.60;20.02;;;;;;;2.42;100.00;100130.84;2066177;28;20563;-69
2022/04/17 03:36:39;;;;;;;23.40;20.90;;;;;;;2.41;100.00;100123.16;2065177;28;20335;-69
2022/04/17 03:37:42;;;;;;;22.98;20.40;;;;;;;2.35;100.00;100130.09;2057676;28;20225;-68
2022/04/17 03:38:44;;;;;;;23.95;21.27;;;;;;;2.31;100.00;100118.38;2065593;28;20189;-69
2022/04/17 03:39:44;;;;;;;26.20;21.25;;;;;;;2.25;100.00;100129.75;2066243;28;20196;-68
2022/04/17 03:40:47;;;;;;;23.07;20.87;;;;;;;2.19;100.00;100126.19;2073609;28;20284;-68
2022/04/17 03:41:51;;;;;;;24.70;21.30;;;;;;;2.28;100.00;100118.03;2073522;28;20231;-69
2022/04/17 03:42:58;;;;;;;27.63;21.58;;;;;;;2.32;100.00;100129.72;2073492;28;20208;-69
2022/04/17 03:43:58;;;;;;;24.20;21.63;;;;;;;2.29;100.00;100124.91;2065222;28;20200;-68
2022/04/17 03:45:01;;;;;;;23.60;21.20;;;;;;;2.31;100.00;100123.66;2057071;28;20261;-68
2022/04/17 03:46:02;;;;;;;23.55;21.25;;;;;;;2.36;100.00;100136.19;2065568;28;20208;-68
2022/04/17 03:47:06;;;;;;;25.87;21.57;;;;;;;2.37;100.00;100129.88;2065410;28;20243;-68
2022/04/17 03:48:08;;;;;;;23.83;21.42;;;;;;;2.38;100.00;100123.59;2065636;28;20549;-68
2022/04/17 03:49:12;;;;;;;26.85;22.70;;;;;;;2.54;100.00;100136.22;2065030;28;20271;-67
2022/04/17 03:50:13;;;;;;;28.05;21.80;;;;;;;2.49;100.00;100141.31;2065613;28;20213;-68
2022/04/17 03:51:15;;;;;;;23.83;21.52;;;;;;;2.39;100.00;100136.53;2073033;28;20239;-68
2022/04/17 03:52:16;;;;;;;24.13;21.67;;;;;;;2.34;100.00;100125.84;2064954;28;20252;-68
2022/04/17 03:53:17;;;;;;;23.83;21.73;;;;;;;2.34;100.00;100127.66;2065497;28;20189;-69
2022/04/17 03:54:19;;;;;;;26.20;21.08;;;;;;;2.34;100.00;100132.94;2066125;28;20204;-68
2022/04/17 03:55:21;;;;;;;23.55;21.02;;;;;;;2.48;100.00;100139.72;2066110;28;20192;-71
2022/04/17 03:56:24;;;;;;;24.48;21.90;;;;;;;2.48;100.00;100137.88;2073470;28;20203;-68
2022/04/17 03:57:28;;;;;;;23.77;21.45;;;;;;;2.52;100.00;100135.63;2065370;28;20193;-69
2022/04/17 03:58:30;;;;;;;24.40;21.77;;;;;;;2.64;100.00;100141.00;2057690;28;20296;-68
2022/04/17 03:59:31;;;;;;;23.80;21.40;;;;;;;2.76;100.00;100141.88;2057802;28;20201;-69
2022/04/17 04:00:33;;;;;;;23.50;21.17;;;;;;;2.72;100.00;100141.50;2065527;28;20704;-69
2022/04/17 04:01:34;;;;;;;23.73;21.42;;;;;;;2.71;100.00;100145.19;2073645;28;20188;-69
2022/04/17 04:02:36;;;;;;;24.83;22.23;;;;;;;2.78;100.00;100145.94;2065268;28;20220;-69
2022/04/17 04:03:39;;;;;;;24.30;21.80;;;;;;;2.74;100.00;100147.38;2057478;28;20202;-68
2022/04/17 04:04:41;;;;;;;24.05;21.63;;;;;;;2.86;100.00;100146.63;2057116;28;20202;-68
2022/04/17 04:05:43;;;;;;;25.08;20.98;;;;;;;2.89;100.00;100148.84;2057285;28;20205;-69
2022/04/17 04:06:44;;;;;;;22.92;20.60;;;;;;;2.84;100.00;100139.75;2065138;28;20262;-69
2022/04/17 04:07:45;;;;;;;22.80;20.50;;;;;;;2.84;100.00;100146.88;2065257;28;20256;-69
2022/04/17 04:08:46;;;;;;;24.45;21.17;;;;;;;2.97;100.00;100140.66;2057274;28;20248;-69
2022/04/17 04:09:50;;;;;;;23.43;21.00;;;;;;;2.94;100.00;100152.44;2056906;28;20799;-69
2022/04/17 04:10:52;;;;;;;24.27;21.70;;;;;;;2.87;100.00;100149.09;2065406;28;20184;-68
2022/04/17 04:11:55;;;;;;;23.23;21.02;;;;;;;2.82;100.00;100144.44;2065915;28;20584;-68
2022/04/17 04:12:57;;;;;;;22.48;20.27;;;;;;;2.80;100.00;100143.88;2065273;28;20244;-69
2022/04/17 04:13:59;;;;;;;23.80;21.45;;;;;;;2.89;100.00;100140.94;2065483;28;20584;-68
2022/04/17 04:15:00;;;;;;;23.40;21.13;;;;;;;2.89;100.00;100141.75;2065999;28;20197;-68
2022/04/17 04:16:02;;;;;;;23.73;21.33;;;;;;;2.88;100.00;100137.50;2065884;28;20217;-67
2022/04/17 04:17:03;;;;;;;22.30;20.10;;;;;;;2.96;100.00;100141.69;2065185;28;20609;-67
2022/04/17 04:18:08;;;;;;;23.42;21.02;;;;;;;3.18;100.00;100142.84;2065461;28;20281;-70
2022/04/17 04:19:10;;;;;;;23.13;20.83;;;;;;;3.30;100.00;100153.44;2065947;28;20197;-67
2022/04/17 04:20:12;;;;;;;22.50;20.30;;;;;;;3.26;100.00;100147.81;2065872;28;20193;-70
2022/04/17 04:21:13;;;;;;;26.02;21.58;;;;;;;3.47;100.00;100151.00;2065318;28;20225;-67
2022/04/17 04:22:14;;;;;;;23.67;21.30;;;;;;;3.38;100.00;100146.03;2065260;28;20212;-69
2022/04/17 04:23:16;;;;;;;22.83;20.60;;;;;;;3.32;100.00;100141.69;2057230;28;20202;-70
2022/04/17 04:24:19;;;;;;;22.15;19.92;;;;;;;3.45;100.00;100139.88;2057289;28;20205;-69
2022/04/17 04:25:20;;;;;;;22.73;20.60;;;;;;;3.42;100.00;100146.41;2065532;28;20251;-69
2022/04/17 04:26:22;;;;;;;22.83;20.63;;;;;;;3.48;100.00;100156.09;2065962;28;20251;-70
2022/04/17 04:28:43;;;;;;;23.95;21.50;;;;;;;3.41;100.00;100144.81;2065898;28;20232;-69
2022/04/17 04:29:44;;;;;;;23.63;21.13;;;;;;;3.34;100.00;100142.25;2066101;28;20227;-70
2022/04/17 04:30:46;;;;;;;23.17;21.00;;;;;;;3.52;100.00;100145.88;2065850;28;20224;-69
2022/04/17 04:31:47;;;;;;;22.48;20.38;;;;;;;3.48;100.00;100148.19;2065197;28;20208;-69
2022/04/17 04:32:53;;;;;;;22.90;20.58;;;;;;;3.41;100.00;100142.19;2057136;28;20213;-69
2022/04/17 04:33:55;;;;;;;23.35;20.88;;;;;;;3.46;100.00;100147.56;2065397;28;20288;-69
2022/04/17 04:35:00;;;;;;;23.63;20.97;;;;;;;3.50;100.00;100145.31;2065806;28;20193;-69
2022/04/17 04:36:02;;;;;;;22.95;20.60;;;;;;;3.66;100.00;100153.41;2065730;28;20640;-70
2022/04/17 04:37:05;;;;;;;22.88;20.48;;;;;;;3.71;100.00;100150.09;2065158;28;20832;-69
2022/04/17 04:38:07;;;;;;;23.13;20.80;;;;;;;3.59;100.00;100147.41;2057023;28;20201;-69
2022/04/17 04:39:09;;;;;;;22.90;20.60;;;;;;;3.53;100.00;100143.03;2057269;28;20236;-69
2022/04/17 04:40:12;;;;;;;23.73;21.33;;;;;;;3.61;100.00;100144.56;2065250;28;20185;-67
2022/04/17 04:41:14;;;;;;;24.40;21.05;;;;;;;3.59;100.00;100146.63;2066022;28;20193;-69
2022/04/17 04:42:17;;;;;;;23.42;21.13;;;;;;;3.71;100.00;100144.00;2065159;28;20240;-69
2022/04/17 04:43:19;;;;;;;23.77;21.13;;;;;;;3.71;100.00;100152.72;2065361;28;20239;-69
2022/04/17 04:44:21;;;;;;;22.90;20.60;;;;;;;3.64;100.00;100147.53;2065845;28;20608;-69
2022/04/17 04:46:43;;;;;;;22.65;20.25;;;;;;;3.58;100.00;100139.72;2065547;28;20177;-69
2022/04/17 04:47:44;;;;;;;22.73;20.45;;;;;;;3.59;100.00;100146.63;2065096;28;20212;-69
2022/04/17 04:50:07;;;;;;;22.85;20.45;;;;;;;3.58;100.00;100139.72;2065539;28;20180;-69
2022/04/17 04:51:08;;;;;;;22.33;20.23;;;;;;;3.59;100.00;100143.97;2065220;28;20562;-69
2022/04/17 04:52:12;;;;;;;23.13;20.75;;;;;;;3.60;100.00;100141.09;2065076;28;20201;-69
2022/04/17 04:53:15;;;;;;;22.17;19.88;;;;;;;3.57;100.00;100141.56;2057076;28;20284;-69
2022/04/17 04:54:17;;;;;;;22.58;20.38;;;;;;;3.53;100.00;100135.09;2065196;28;20185;-69
2022/04/17 04:55:18;;;;;;;22.05;19.83;;;;;;;3.56;100.00;100139.13;2072785;28;20204;-69
2022/04/17 04:56:22;;;;;;;21.77;19.87;;;;;;;3.57;100.00;100138.94;2073382;28;20285;-69